ADDS METAR Data INFO
IDs: Format: Raw Decoded Include TAF

Data at: 2137 UTC 15 Dec 2017

KDUB 152115Z AUTO 33025G35KT 10SM CLR 03/M13 A2992 RMK AO2
KDUB 152055Z AUTO 34023G31KT 10SM CLR 03/M13 A2993 RMK AO2
KDUB 152035Z AUTO 33023G35KT 10SM CLR 04/M13 A2995 RMK AO2
KDUB 152015Z AUTO 33025G34KT 10SM CLR 05/M15 A2995 RMK AO2
KDUB 151955Z AUTO 34024G38KT 10SM CLR 06/M15 A2996 RMK AO2
KDUB 151935Z AUTO 33023G31KT 10SM CLR 06/M15 A2996 RMK AO2
KDUB 151915Z AUTO 34022G31KT 10SM CLR 06/M14 A2997 RMK AO2
KDUB 151855Z AUTO 34022G30KT 10SM CLR 06/M14 A2999 RMK AO2
KDUB 151835Z AUTO 34022G26KT 10SM CLR 05/M14 A3000 RMK AO2
KDUB 151815Z AUTO 34017G25KT 10SM CLR 04/M13 A3002 RMK AO2
KDUB 151755Z AUTO 33013G22KT 10SM CLR 03/M13 A3005 RMK AO2
KDUB 151735Z AUTO 33014G20KT 10SM CLR 02/M13 A3007 RMK AO2
KDUB 151715Z AUTO 32018G27KT 10SM CLR 02/M13 A3007 RMK AO2
KDUB 151655Z AUTO 32016G22KT 10SM CLR 01/M14 A3008 RMK AO2
KDUB 151635Z AUTO 33019G28KT 10SM CLR 01/M14 A3008 RMK AO2
KDUB 151615Z AUTO 34023G30KT 10SM CLR 00/M14 A3007 RMK AO2
KDUB 151555Z AUTO 33021G27KT 10SM CLR M01/M14 A3007 RMK AO2
KDUB 151535Z AUTO 34019G23KT 10SM CLR M01/M15 A3008 RMK AO2
KDUB 151515Z AUTO 34011G18KT 10SM CLR M02/M14 A3010 RMK AO2
KDUB 151455Z AUTO 35013G23KT 10SM CLR M02/M14 A3010 RMK AO2
KDUB 151435Z AUTO 36014G22KT 10SM CLR M02/M14 A3011 RMK AO2
KDUB 151415Z AUTO 35018G23KT 10SM CLR M01/M15 A3011 RMK AO2
KDUB 151355Z AUTO 35017G21KT 10SM CLR M01/M15 A3012 RMK AO2
KDUB 151335Z AUTO 32021G27KT 10SM CLR M01/M15 A3012 RMK AO2
KDUB 151315Z AUTO 34014G18KT 10SM CLR M01/M15 A3011 RMK AO2
KDUB 151255Z AUTO 33015G21KT 10SM CLR M01/M15 A3012 RMK AO2
KDUB 151235Z AUTO 34016G19KT 10SM CLR M01/M16 A3012 RMK AO2
KDUB 151215Z AUTO 33014G19KT 10SM CLR M01/M16 A3012 RMK AO2
KDUB 151155Z AUTO 33013G19KT 10SM CLR M01/M16 A3011 RMK AO2
KDUB 151135Z AUTO 33014G17KT 10SM CLR M01/M16 A3013 RMK AO2
KDUB 151115Z AUTO 33018KT 10SM CLR M02/M16 A3014 RMK AO2
KDUB 151055Z AUTO 33022KT 10SM CLR M02/M16 A3013 RMK AO2
KDUB 151035Z AUTO 33021G27KT 10SM CLR M01/M17 A3014 RMK AO2
KDUB 151015Z AUTO 33022G27KT 10SM CLR M01/M17 A3015 RMK AO2
KDUB 150955Z AUTO 33019G25KT 10SM CLR M01/M17 A3015 RMK AO2
KDUB 150935Z AUTO 32016G20KT 10SM CLR M01/M17 A3015 RMK AO2
KDUB 150915Z AUTO 33020KT 10SM CLR M01/M17 A3014 RMK AO2
KDUB 150855Z AUTO 34016G22KT 10SM CLR M01/M17 A3015 RMK AO2
KDUB 150835Z AUTO 32012G16KT 10SM CLR M02/M17 A3015 RMK AO2
KDUB 150815Z AUTO 34017G23KT 10SM CLR M01/M17 A3015 RMK AO2
KDUB 150755Z AUTO 33013G19KT 10SM CLR M01/M17 A3016 RMK AO2
KDUB 150735Z AUTO 32017G21KT 10SM CLR 00/M18 A3017 RMK AO2
KDUB 150715Z AUTO 30017G24KT 10SM CLR 00/M18 A3018 RMK AO2
KDUB 150655Z AUTO 33015G20KT 10SM CLR 00/M18 A3018 RMK AO2
KDUB 150635Z AUTO 33010G16KT 10SM CLR 00/M18 A3018 RMK AO2
KDUB 150615Z AUTO 30016KT 10SM CLR 00/M18 A3019 RMK AO2
KDUB 150555Z AUTO 31011G21KT 10SM CLR 00/M19 A3020 RMK AO2
KDUB 150535Z AUTO 32018G28KT 10SM CLR 01/M20 A3019 RMK AO2
KDUB 150515Z AUTO 31016G25KT 10SM CLR 00/M19 A3018 RMK AO2
KDUB 150455Z AUTO 31024G28KT 10SM CLR 01/M21 A3019 RMK AO2
KDUB 150435Z AUTO 31016G27KT 10SM CLR 00/M21 A3019 RMK AO2
KDUB 150415Z AUTO 33015G22KT 10SM CLR 00/M18 A3020 RMK AO2
KDUB 150355Z AUTO 32013G26KT 10SM CLR 00/M21 A3020 RMK AO2
KDUB 150335Z AUTO 32015G19KT 10SM CLR M01/M18 A3020 RMK AO2
KDUB 150315Z AUTO 32018G21KT 10SM CLR 00/M19 A3020 RMK AO2
KDUB 150255Z AUTO 33010KT 10SM CLR M01/M19 A3020 RMK AO2
KDUB 150235Z AUTO 30017G22KT 10SM CLR 00/M22 A3020 RMK AO2
KDUB 150215Z AUTO 29013G17KT 10SM CLR 00/M21 A3021 RMK AO2
KDUB 150155Z AUTO 30012G18KT 10SM CLR 00/M22 A3020 RMK AO2
KDUB 150135Z AUTO 30016G29KT 10SM CLR 00/M22 A3021 RMK AO2
KDUB 150115Z AUTO 31012G22KT 10SM CLR 00/M22 A3022 RMK AO2
KDUB 150055Z AUTO 28016G23KT 10SM CLR 00/M22 A3022 RMK AO2
KDUB 150035Z AUTO 28020G28KT 10SM CLR 00/M20 A3022 RMK AO2
KDUB 150015Z AUTO 28013KT 10SM CLR 00/M20 A3022 RMK AO2
KDUB 142355Z AUTO 29016KT 10SM CLR 00/M19 A3022 RMK AO2
KDUB 142335Z AUTO 29015G19KT 10SM CLR 00/M19 A3022 RMK AO2
KDUB 142315Z AUTO 29020G25KT 10SM CLR 01/M19 A3021 RMK AO2
KDUB 142255Z AUTO 30015G30KT 10SM CLR 01/M20 A3021 RMK AO2
KDUB 142235Z AUTO 29019G30KT 10SM CLR 03/M20 A3022 RMK AO2
KDUB 142210Z AUTO 29018G29KT 10SM CLR 03/M20 A3022 RMK AO2
KDUB 142155Z AUTO 30014G24KT 10SM CLR 03/M18 A3022 RMK AO2
KDUB 142135Z AUTO 28018G24KT 10SM CLR 03/M18 A3022 RMK AO2
KDUB 142115Z AUTO 29012G18KT 10SM CLR 04/M18 A3021 RMK AO2
KDUB 142055Z AUTO 30014G20KT 10SM CLR 04/M17 A3022 RMK AO2
KDUB 142035Z AUTO 31011G19KT 10SM CLR 04/M19 A3022 RMK AO2
KDUB 142015Z AUTO 30014G20KT 10SM CLR 03/M17 A3022 RMK AO2
KDUB 141955Z AUTO 31013G20KT 10SM CLR 03/M17 A3023 RMK AO2
KDUB 141935Z AUTO 33012G20KT 10SM CLR 03/M17 A3024 RMK AO2
KDUB 141915Z AUTO 32012G20KT 10SM CLR 02/M17 A3024 RMK AO2
KDUB 141855Z AUTO 30015G22KT 10SM CLR 02/M16 A3024 RMK AO2
KDUB 141835Z AUTO 31015G22KT 10SM CLR 01/M15 A3026 RMK AO2
KDUB 141815Z AUTO 33013G17KT 10SM CLR 01/M13 A3026 RMK AO2
KDUB 141755Z AUTO 34010KT 10SM CLR 00/M13 A3027 RMK AO2
KDUB 141735Z AUTO 36011KT 10SM CLR M01/M11 A3028 RMK AO2
KDUB 141715Z AUTO 34010KT 10SM CLR M02/M10 A3028 RMK AO2
KDUB 141655Z AUTO 34009KT 10SM CLR M03/M10 A3027 RMK AO2
KDUB 141635Z AUTO 32005KT 10SM CLR M03/M11 A3027 RMK AO2
KDUB 141615Z AUTO 30004KT 10SM CLR M04/M11 A3027 RMK AO2
KDUB 141555Z AUTO 32006KT 10SM CLR M05/M12 A3026 RMK AO2
KDUB 141535Z AUTO 32007KT 10SM CLR M06/M12 A3026 RMK AO2
KDUB 141515Z AUTO 33008KT 10SM CLR M06/M12 A3026 RMK AO2
KDUB 141455Z AUTO 34008KT 10SM CLR M06/M12 A3026 RMK AO2
KDUB 141435Z AUTO 34010KT 10SM CLR M06/M12 A3026 RMK AO2
KDUB 141415Z AUTO 34010KT 10SM CLR M06/M12 A3026 RMK AO2
KDUB 141355Z AUTO 33011KT 10SM CLR M06/M12 A3026 RMK AO2
KDUB 141330Z AUTO 34009KT 10SM CLR M06/M11 A3025 RMK AO2
KDUB 141315Z AUTO 33006KT 10SM CLR M06/M12 A3024 RMK AO2
KDUB 141255Z AUTO 34005KT 10SM CLR M08/M12 A3024 RMK AO2
KDUB 141235Z AUTO 00000KT 10SM CLR M07/M11 A3024 RMK AO2
KDUB 141215Z AUTO 00000KT 10SM CLR M10/M12 A3024 RMK AO2
KDUB 141155Z AUTO 00000KT 10SM CLR M11/M13 A3024 RMK AO2
KDUB 141135Z AUTO 00000KT 10SM CLR M11/M13 A3024 RMK AO2
KDUB 141115Z AUTO 00000KT 10SM CLR M09/M12 A3024 RMK AO2
KDUB 141055Z AUTO 00000KT 10SM CLR M08/M11 A3024 RMK AO2
KDUB 141035Z AUTO 28004KT 10SM CLR M07/M10 A3024 RMK AO2
KDUB 141015Z AUTO 26005KT 10SM CLR M09/M11 A3024 RMK AO2
KDUB 140955Z AUTO 30006KT 10SM CLR M07/M10 A3024 RMK AO2